Time;durP1;ratioP1;P1;durP2;ratioP2;P2;SDS_P1;SDS_P2;PMS_P1;PMS_P2;Temp;Humidity;BMP_temperature;BMP_pressure;BME280_temperature;BME280_humidity;BME280_pressure;Samples;Min_cycle;Max_cycle;Signal;HPM_P1;HPM_P2
2021/06/24 00:01:24;;;;;;;3.47;1.80;;;;;;;;;;5078726;28;20057;-79
2021/06/24 00:03:51;;;;;;;5.00;1.70;;;;;;;;;;5078402;28;20497;-79
2021/06/24 00:06:18;;;;;;;3.72;1.80;;;;;;;;;;5078290;28;20045;-79
2021/06/24 00:08:45;;;;;;;4.38;2.30;;;;;;;;;;5078035;28;20052;-79
2021/06/24 00:11:14;;;;;;;3.45;1.60;;;;;;;;;;5077404;28;20044;-79
2021/06/24 00:13:42;;;;;;;4.18;1.90;;;;;;;;;;5078017;28;20492;-79
2021/06/24 00:16:10;;;;;;;3.38;1.63;;;;;;;;;;5078134;28;20044;-79
2021/06/24 00:18:37;;;;;;;3.70;1.90;;;;;;;;;;5078200;28;20048;-79
2021/06/24 00:21:04;;;;;;;5.35;2.40;;;;;;;;;;5077703;28;20052;-78
2021/06/24 00:23:31;;;;;;;4.03;2.10;;;;;;;;;;5078165;28;20094;-79
2021/06/24 00:25:58;;;;;;;4.28;1.90;;;;;;;;;;5077972;28;20048;-79
2021/06/24 00:28:27;;;;;;;2.90;1.70;;;;;;;;;;5077376;28;20049;-78
2021/06/24 00:30:55;;;;;;;5.18;2.10;;;;;;;;;;5077435;28;20048;-79
2021/06/24 00:33:24;;;;;;;4.00;2.05;;;;;;;;;;5077870;28;20049;-79
2021/06/24 00:35:51;;;;;;;4.80;2.38;;;;;;;;;;5077886;28;20040;-79
2021/06/24 00:38:17;;;;;;;3.65;2.22;;;;;;;;;;5077969;28;20044;-79
2021/06/24 00:40:45;;;;;;;4.03;2.25;;;;;;;;;;5077503;28;20102;-79
2021/06/24 00:43:13;;;;;;;4.60;2.28;;;;;;;;;;5077559;28;20440;-79
2021/06/24 00:45:41;;;;;;;4.15;2.35;;;;;;;;;;5077478;28;20048;-79
2021/06/24 00:48:10;;;;;;;4.55;2.55;;;;;;;;;;5078034;28;20483;-79
2021/06/24 00:50:42;;;;;;;4.22;2.72;;;;;;;;;;5077743;28;20045;-79
2021/06/24 00:53:09;;;;;;;4.18;2.70;;;;;;;;;;5078237;28;20098;-79
2021/06/24 00:55:43;;;;;;;5.80;3.13;;;;;;;;;;5078173;28;20040;-78
2021/06/24 00:58:12;;;;;;;6.70;3.80;;;;;;;;;;5078561;28;20058;-79
2021/06/24 01:00:40;;;;;;;5.28;3.28;;;;;;;;;;5088387;22;20063;-77
2021/06/24 01:03:07;;;;;;;5.35;3.05;;;;;;;;;;5079874;28;20044;-78
2021/06/24 01:05:35;;;;;;;5.60;3.55;;;;;;;;;;5078579;28;20048;-77
2021/06/24 01:08:04;;;;;;;5.47;3.47;;;;;;;;;;5078240;28;20041;-78
2021/06/24 01:10:31;;;;;;;5.68;3.53;;;;;;;;;;5076832;28;20037;-79
2021/06/24 01:12:58;;;;;;;6.00;3.47;;;;;;;;;;5077587;28;20110;-78
2021/06/24 01:15:25;;;;;;;5.65;3.00;;;;;;;;;;5077663;28;20093;-79
2021/06/24 01:17:52;;;;;;;7.35;2.92;;;;;;;;;;5077582;28;20048;-79
2021/06/24 01:20:24;;;;;;;5.75;2.60;;;;;;;;;;5076010;28;20071;-77
2021/06/24 01:22:52;;;;;;;3.88;2.45;;;;;;;;;;5074516;28;20099;-77
2021/06/24 01:25:20;;;;;;;5.93;2.88;;;;;;;;;;5075456;28;20102;-78
2021/06/24 01:27:47;;;;;;;6.72;3.40;;;;;;;;;;5076328;28;20452;-79
2021/06/24 01:30:15;;;;;;;4.45;2.83;;;;;;;;;;5077143;28;20048;-77
2021/06/24 01:32:42;;;;;;;4.80;3.00;;;;;;;;;;5075468;28;20197;-76
2021/06/24 01:35:10;;;;;;;6.28;3.40;;;;;;;;;;5075530;28;20048;-77
2021/06/24 01:37:37;;;;;;;5.20;2.55;;;;;;;;;;5074670;28;20410;-77
2021/06/24 01:40:04;;;;;;;5.22;2.60;;;;;;;;;;5074214;28;20048;-77
2021/06/24 01:42:32;;;;;;;5.43;2.70;;;;;;;;;;5073655;28;20102;-77
2021/06/24 01:44:59;;;;;;;3.55;1.90;;;;;;;;;;5074196;28;20485;-77
2021/06/24 01:47:26;;;;;;;5.25;1.95;;;;;;;;;;5074580;28;20048;-77
2021/06/24 01:49:53;;;;;;;3.83;1.95;;;;;;;;;;5073830;28;20048;-77
2021/06/24 01:52:19;;;;;;;3.33;1.58;;;;;;;;;;5073387;28;20178;-77
2021/06/24 01:54:47;;;;;;;4.05;1.80;;;;;;;;;;5074157;28;20461;-77
2021/06/24 01:57:16;;;;;;;3.45;1.63;;;;;;;;;;5073792;28;20047;-77
2021/06/24 01:59:44;;;;;;;3.90;1.52;;;;;;;;;;5073913;28;20054;-77
2021/06/24 02:02:11;;;;;;;3.63;1.50;;;;;;;;;;5073356;28;20501;-77
2021/06/24 02:04:38;;;;;;;2.97;1.52;;;;;;;;;;5073513;28;20102;-77
2021/06/24 02:07:05;;;;;;;3.80;1.35;;;;;;;;;;5073715;28;20090;-77
2021/06/24 02:09:32;;;;;;;3.03;1.50;;;;;;;;;;5076910;28;20102;-77
2021/06/24 02:11:59;;;;;;;4.78;1.75;;;;;;;;;;5079836;28;20094;-77
2021/06/24 02:14:26;;;;;;;3.28;1.52;;;;;;;;;;5080579;28;20048;-78
2021/06/24 02:16:54;;;;;;;2.70;1.45;;;;;;;;;;5080067;28;20044;-78
2021/06/24 02:19:21;;;;;;;3.47;1.50;;;;;;;;;;5079672;28;20555;-78
2021/06/24 02:21:48;;;;;;;2.38;1.38;;;;;;;;;;5078871;28;20045;-77
2021/06/24 02:24:15;;;;;;;2.70;1.48;;;;;;;;;;5080554;28;20044;-78
2021/06/24 02:26:42;;;;;;;3.00;1.50;;;;;;;;;;5085028;28;20052;-78
2021/06/24 02:29:09;;;;;;;2.35;1.30;;;;;;;;;;5093803;28;20080;-78
2021/06/24 02:31:35;;;;;;;3.38;1.58;;;;;;;;;;5085642;28;20051;-78
2021/06/24 02:34:05;;;;;;;4.85;2.60;;;;;;;;;;5082282;28;20105;-77
2021/06/24 02:36:32;;;;;;;4.55;3.25;;;;;;;;;;5083893;28;20067;-77
2021/06/24 02:38:59;;;;;;;4.38;1.85;;;;;;;;;;5091479;28;20059;-77
2021/06/24 02:41:25;;;;;;;2.88;1.35;;;;;;;;;;5094437;28;20040;-77
2021/06/24 02:43:52;;;;;;;2.38;1.17;;;;;;;;;;5090290;28;20044;-77
2021/06/24 02:46:19;;;;;;;2.38;1.23;;;;;;;;;;5092967;28;20044;-75
2021/06/24 02:48:45;;;;;;;2.83;1.40;;;;;;;;;;5089687;28;20074;-76
2021/06/24 02:51:13;;;;;;;2.50;1.20;;;;;;;;;;5088795;28;20075;-76
2021/06/24 02:53:40;;;;;;;2.60;1.20;;;;;;;;;;5088537;28;20056;-77
2021/06/24 02:56:07;;;;;;;2.70;1.13;;;;;;;;;;5087991;28;20045;-76
2021/06/24 02:58:34;;;;;;;4.20;1.60;;;;;;;;;;5089848;28;20068;-78
2021/06/24 03:01:02;;;;;;;2.20;1.15;;;;;;;;;;5089111;28;20044;-76
2021/06/24 03:03:29;;;;;;;2.28;1.08;;;;;;;;;;5091657;28;20071;-76
2021/06/24 03:05:55;;;;;;;3.80;1.58;;;;;;;;;;5082117;28;20447;-77
2021/06/24 03:08:23;;;;;;;2.65;0.90;;;;;;;;;;5075236;28;20044;-78
2021/06/24 03:10:50;;;;;;;1.85;0.98;;;;;;;;;;5073807;28;20074;-78
2021/06/24 03:13:17;;;;;;;2.72;1.40;;;;;;;;;;5075067;28;20044;-77
2021/06/24 03:15:44;;;;;;;2.28;1.15;;;;;;;;;;5074486;28;20593;-77
2021/06/24 03:18:11;;;;;;;2.45;1.10;;;;;;;;;;5072372;28;20052;-77
2021/06/24 03:20:38;;;;;;;2.85;1.05;;;;;;;;;;5071439;28;20505;-77
2021/06/24 03:23:05;;;;;;;1.95;1.00;;;;;;;;;;5072515;28;20090;-77
2021/06/24 03:25:33;;;;;;;2.50;1.20;;;;;;;;;;5071984;28;20174;-77
2021/06/24 03:28:00;;;;;;;3.53;1.60;;;;;;;;;;5075115;28;20501;-77
2021/06/24 03:30:26;;;;;;;2.72;1.40;;;;;;;;;;5078091;28;20101;-77
2021/06/24 03:32:53;;;;;;;4.18;1.88;;;;;;;;;;5077859;28;20126;-77
2021/06/24 03:35:21;;;;;;;5.05;2.47;;;;;;;;;;5072787;28;20049;-78
2021/06/24 03:37:48;;;;;;;4.35;3.00;;;;;;;;;;5074602;28;20159;-78
2021/06/24 03:40:17;;;;;;;4.30;2.28;;;;;;;;;;5074745;28;20071;-77
2021/06/24 03:42:46;;;;;;;5.35;2.63;;;;;;;;;;5071542;28;20419;-77
2021/06/24 03:45:15;;;;;;;3.85;2.00;;;;;;;;;;5077539;28;20114;-77
2021/06/24 03:47:42;;;;;;;3.95;2.40;;;;;;;;;;5080398;28;20053;-78
2021/06/24 03:50:10;;;;;;;4.85;2.20;;;;;;;;;;5074185;28;20147;-77
2021/06/24 03:52:37;;;;;;;3.47;1.70;;;;;;;;;;5072619;28;20133;-77
2021/06/24 03:55:05;;;;;;;4.25;1.50;;;;;;;;;;5074707;28;20052;-78
2021/06/24 03:57:32;;;;;;;3.42;1.52;;;;;;;;;;5075093;28;20521;-78
2021/06/24 04:00:00;;;;;;;3.00;1.52;;;;;;;;;;5074317;28;20102;-78
2021/06/24 04:02:27;;;;;;;4.05;1.88;;;;;;;;;;5073480;28;20121;-78
2021/06/24 04:04:53;;;;;;;3.38;1.77;;;;;;;;;;5074933;28;20060;-78
2021/06/24 04:07:20;;;;;;;3.47;1.92;;;;;;;;;;5074584;28;20045;-78
2021/06/24 04:09:47;;;;;;;5.22;2.20;;;;;;;;;;5073825;28;20044;-77
2021/06/24 04:12:14;;;;;;;4.82;2.15;;;;;;;;;;5073600;28;20044;-76
2021/06/24 04:14:40;;;;;;;4.53;2.40;;;;;;;;;;5075923;28;20041;-77
2021/06/24 04:17:08;;;;;;;3.95;2.17;;;;;;;;;;5078907;28;20070;-78
2021/06/24 04:19:35;;;;;;;7.70;3.08;;;;;;;;;;5078759;28;20040;-77
2021/06/24 04:22:02;;;;;;;5.50;2.35;;;;;;;;;;5078180;28;20045;-78
2021/06/24 04:24:29;;;;;;;3.75;2.22;;;;;;;;;;5078034;28;20049;-77
2021/06/24 04:26:56;;;;;;;3.83;1.90;;;;;;;;;;5077948;28;20040;-77
2021/06/24 04:29:22;;;;;;;4.28;2.42;;;;;;;;;;5078067;28;20494;-77
2021/06/24 04:31:49;;;;;;;3.55;1.60;;;;;;;;;;5077187;28;20114;-77
2021/06/24 04:34:17;;;;;;;3.10;1.27;;;;;;;;;;5077247;28;20048;-77
2021/06/24 04:36:44;;;;;;;2.55;1.30;;;;;;;;;;5079695;28;20082;-78
2021/06/24 04:39:12;;;;;;;1.98;1.30;;;;;;;;;;5081707;28;20453;-78
2021/06/24 04:41:39;;;;;;;2.95;1.50;;;;;;;;;;5081662;28;20174;-77
2021/06/24 04:44:06;;;;;;;2.17;1.17;;;;;;;;;;5084980;28;20048;-78
2021/06/24 04:46:33;;;;;;;2.83;1.23;;;;;;;;;;5081974;28;20098;-77
2021/06/24 04:49:00;;;;;;;2.53;1.23;;;;;;;;;;5077660;28;20048;-77
2021/06/24 04:51:28;;;;;;;2.33;1.13;;;;;;;;;;5077660;28;20558;-78
2021/06/24 04:53:55;;;;;;;3.35;1.15;;;;;;;;;;5087891;28;20048;-76
2021/06/24 04:56:21;;;;;;;2.45;1.30;;;;;;;;;;5089751;28;20044;-77
2021/06/24 04:58:48;;;;;;;2.03;1.08;;;;;;;;;;5085197;28;20102;-77
2021/06/24 05:01:15;;;;;;;4.57;1.30;;;;;;;;;;5076962;28;20511;-79
2021/06/24 05:03:42;;;;;;;3.25;1.52;;;;;;;;;;5078629;28;20053;-77
2021/06/24 05:06:10;;;;;;;2.80;1.40;;;;;;;;;;5076753;28;20460;-76
2021/06/24 05:08:39;;;;;;;2.38;1.20;;;;;;;;;;5074576;28;20170;-76
2021/06/24 05:11:05;;;;;;;2.25;1.20;;;;;;;;;;5073642;28;20471;-77
2021/06/24 05:13:33;;;;;;;5.57;3.50;;;;;;;;;;5074541;28;20048;-76
2021/06/24 05:16:00;;;;;;;2.85;1.52;;;;;;;;;;5074556;28;20044;-77
2021/06/24 05:18:27;;;;;;;3.17;1.35;;;;;;;;;;5074802;28;20052;-76
2021/06/24 05:20:54;;;;;;;2.53;1.38;;;;;;;;;;5073974;28;20449;-77
2021/06/24 05:23:21;;;;;;;3.28;1.60;;;;;;;;;;5074442;28;20452;-77
2021/06/24 05:25:49;;;;;;;3.50;1.88;;;;;;;;;;5075173;28;20597;-77
2021/06/24 05:28:16;;;;;;;3.53;1.48;;;;;;;;;;5075801;28;20048;-79
2021/06/24 05:30:44;;;;;;;2.60;1.20;;;;;;;;;;5074591;28;20052;-77
2021/06/24 05:33:11;;;;;;;2.40;1.13;;;;;;;;;;5074873;28;20048;-77
2021/06/24 05:35:39;;;;;;;3.33;1.50;;;;;;;;;;5079256;28;20584;-77
2021/06/24 05:38:10;;;;;;;2.85;1.50;;;;;;;;;;5074238;28;20049;-77
2021/06/24 05:40:37;;;;;;;2.38;1.10;;;;;;;;;;5077717;28;20049;-77
2021/06/24 05:43:06;;;;;;;4.20;1.40;;;;;;;;;;5075344;28;20442;-77
2021/06/24 05:45:33;;;;;;;2.20;1.27;;;;;;;;;;5076958;28;20057;-77
2021/06/24 05:48:00;;;;;;;2.58;1.30;;;;;;;;;;5070901;28;20041;-77
2021/06/24 05:50:27;;;;;;;1.83;1.08;;;;;;;;;;5078480;28;20048;-74
2021/06/24 05:52:55;;;;;;;2.95;1.38;;;;;;;;;;5084430;28;20052;-76
2021/06/24 05:55:47;;;;;;;3.95;1.30;;;;;;;;;;5082113;28;20041;-78
2021/06/24 05:58:13;;;;;;;4.57;1.30;;;;;;;;;;5075564;28;20054;-77
2021/06/24 06:00:40;;;;;;;3.87;1.37;;;;;;;;;;5070971;28;20048;-78
2021/06/24 06:03:07;;;;;;;2.15;1.30;;;;;;;;;;5074106;28;20343;-77
2021/06/24 06:05:34;;;;;;;3.45;1.30;;;;;;;;;;5071256;28;20044;-78
2021/06/24 06:08:01;;;;;;;3.42;2.05;;;;;;;;;;5077480;28;20102;-79
2021/06/24 06:10:28;;;;;;;3.15;1.33;;;;;;;;;;5078857;28;20052;-76
2021/06/24 06:12:55;;;;;;;3.72;1.30;;;;;;;;;;5077845;28;20049;-79
2021/06/24 06:15:23;;;;;;;3.22;1.55;;;;;;;;;;5082807;28;20070;-79
2021/06/24 06:17:50;;;;;;;3.45;1.75;;;;;;;;;;5082378;28;20049;-78
2021/06/24 06:20:17;;;;;;;2.70;1.45;;;;;;;;;;5078724;28;20079;-79
2021/06/24 06:22:44;;;;;;;3.33;1.67;;;;;;;;;;5076908;28;20110;-80
2021/06/24 06:25:13;;;;;;;4.72;1.70;;;;;;;;;;5075620;28;20045;-78
2021/06/24 06:27:40;;;;;;;3.42;1.98;;;;;;;;;;5085173;28;20048;-78
2021/06/24 06:30:09;;;;;;;3.00;1.80;;;;;;;;;;5083899;28;20049;-77
2021/06/24 06:32:37;;;;;;;3.92;1.95;;;;;;;;;;5077611;28;20041;-82
2021/06/24 06:35:04;;;;;;;3.75;2.13;;;;;;;;;;5077358;28;20489;-78
2021/06/24 06:37:31;;;;;;;2.72;1.80;;;;;;;;;;5075692;28;20044;-77
2021/06/24 06:39:58;;;;;;;4.20;2.50;;;;;;;;;;5072721;28;20051;-77
2021/06/24 06:42:25;;;;;;;4.78;1.95;;;;;;;;;;5074858;28;20044;-77
2021/06/24 06:44:51;;;;;;;3.97;1.92;;;;;;;;;;5074647;28;20083;-78
2021/06/24 06:47:18;;;;;;;3.28;1.60;;;;;;;;;;5073956;28;20040;-78
2021/06/24 06:49:46;;;;;;;2.83;1.63;;;;;;;;;;5074301;28;20101;-77
2021/06/24 06:52:13;;;;;;;3.13;1.73;;;;;;;;;;5075979;28;20044;-78
2021/06/24 06:54:40;;;;;;;5.05;2.00;;;;;;;;;;5070380;28;20040;-77
2021/06/24 06:57:07;;;;;;;3.13;1.65;;;;;;;;;;5071289;28;20094;-79
2021/06/24 06:59:42;;;;;;;3.30;1.70;;;;;;;;;;5102788;22;20045;-81
2021/06/24 07:05:13;;;;;;;4.93;1.45;;;;;;;;;;5054842;28;20053;-85
2021/06/24 07:07:43;;;;;;;2.80;1.55;;;;;;;;;;5058784;28;20505;-85
2021/06/24 07:10:14;;;;;;;2.97;1.50;;;;;;;;;;5055716;28;20045;-84
2021/06/24 07:12:46;;;;;;;3.05;1.70;;;;;;;;;;5035481;28;20056;-84
2021/06/24 07:15:17;;;;;;;2.95;1.38;;;;;;;;;;5036317;28;20053;-84
2021/06/24 07:17:45;;;;;;;2.88;1.65;;;;;;;;;;5036428;28;20100;-82
2021/06/24 07:20:20;;;;;;;3.38;1.67;;;;;;;;;;5036370;28;20055;-82
2021/06/24 07:22:46;;;;;;;2.78;1.80;;;;;;;;;;5035917;28;20075;-79
2021/06/24 07:25:15;;;;;;;3.75;1.45;;;;;;;;;;5035651;28;20069;-80
2021/06/24 07:27:42;;;;;;;3.47;2.35;;;;;;;;;;5035018;28;20053;-82
2021/06/24 07:30:10;;;;;;;2.67;1.48;;;;;;;;;;5035149;28;20046;-82
2021/06/24 07:32:37;;;;;;;2.65;1.60;;;;;;;;;;5034781;28;20553;-82
2021/06/24 07:35:05;;;;;;;3.22;1.77;;;;;;;;;;5035741;28;20079;-81
2021/06/24 07:37:33;;;;;;;2.80;1.65;;;;;;;;;;5035022;28;20050;-80
2021/06/24 07:40:00;;;;;;;2.95;1.83;;;;;;;;;;5034777;28;20053;-82
2021/06/24 07:42:27;;;;;;;4.15;1.92;;;;;;;;;;5033650;28;20433;-80
2021/06/24 07:44:53;;;;;;;3.20;1.75;;;;;;;;;;5054543;28;20037;-82
2021/06/24 07:47:20;;;;;;;3.42;2.25;;;;;;;;;;5063256;28;20045;-80
2021/06/24 07:49:47;;;;;;;4.93;2.47;;;;;;;;;;5069863;28;20053;-80
2021/06/24 07:52:15;;;;;;;4.78;2.30;;;;;;;;;;5064122;28;20105;-82
2021/06/24 07:54:43;;;;;;;4.60;1.83;;;;;;;;;;5076899;28;20057;-80
2021/06/24 07:57:10;;;;;;;2.60;1.35;;;;;;;;;;5068360;28;20394;-83
2021/06/24 07:59:38;;;;;;;3.55;1.80;;;;;;;;;;5058025;28;20547;-83
2021/06/24 08:02:05;;;;;;;3.05;1.63;;;;;;;;;;5058243;28;20098;-83
2021/06/24 08:04:34;;;;;;;2.38;1.40;;;;;;;;;;5057368;28;20166;-84
2021/06/24 08:07:02;;;;;;;3.05;1.70;;;;;;;;;;5059901;28;20100;-84
2021/06/24 08:09:29;;;;;;;2.70;1.73;;;;;;;;;;5055473;28;20049;-85
2021/06/24 08:11:58;;;;;;;2.95;1.60;;;;;;;;;;5062310;28;20044;-83
2021/06/24 08:14:24;;;;;;;3.42;1.60;;;;;;;;;;5062345;28;20053;-83
2021/06/24 08:16:52;;;;;;;4.13;1.70;;;;;;;;;;5067762;28;20162;-84
2021/06/24 08:19:19;;;;;;;3.45;1.50;;;;;;;;;;5071012;28;20053;-83
2021/06/24 08:21:46;;;;;;;3.92;2.38;;;;;;;;;;5083839;28;20106;-84
2021/06/24 08:24:13;;;;;;;4.25;2.20;;;;;;;;;;5084840;28;20052;-82
2021/06/24 08:26:39;;;;;;;2.97;1.58;;;;;;;;;;5084983;28;20045;-84
2021/06/24 08:29:08;;;;;;;3.03;1.60;;;;;;;;;;5083627;28;20060;-85
2021/06/24 08:31:36;;;;;;;2.63;1.50;;;;;;;;;;5082991;28;20059;-83
2021/06/24 08:34:03;;;;;;;2.40;1.55;;;;;;;;;;5083593;28;20048;-83
2021/06/24 08:36:29;;;;;;;3.50;1.83;;;;;;;;;;5085222;28;20067;-81
2021/06/24 08:38:56;;;;;;;5.13;3.15;;;;;;;;;;5094161;28;20052;-81
2021/06/24 08:41:25;;;;;;;3.63;2.03;;;;;;;;;;5093112;28;20074;-82
2021/06/24 08:43:53;;;;;;;3.00;1.60;;;;;;;;;;5088588;28;20109;-84
2021/06/24 08:46:22;;;;;;;4.13;1.60;;;;;;;;;;5084564;28;20049;-83
2021/06/24 08:48:49;;;;;;;5.78;2.25;;;;;;;;;;5083735;28;20072;-83
2021/06/24 08:51:17;;;;;;;3.05;1.65;;;;;;;;;;5083364;28;20074;-84
2021/06/24 08:53:47;;;;;;;3.85;2.25;;;;;;;;;;5084101;28;20187;-83
2021/06/24 08:56:15;;;;;;;2.63;1.50;;;;;;;;;;5084712;28;20044;-84
2021/06/24 08:58:43;;;;;;;3.45;2.08;;;;;;;;;;5081334;28;20045;-83
2021/06/24 09:01:10;;;;;;;5.60;2.97;;;;;;;;;;5078927;28;20059;-84
2021/06/24 09:03:39;;;;;;;5.10;1.63;;;;;;;;;;5065430;28;20049;-83
2021/06/24 09:06:07;;;;;;;3.22;1.80;;;;;;;;;;5062650;28;20060;-82
2021/06/24 09:08:36;;;;;;;4.53;2.50;;;;;;;;;;5061349;28;20095;-83
2021/06/24 09:11:18;;;;;;;4.05;2.38;;;;;;;;;;5060089;28;20049;-84
2021/06/24 09:13:46;;;;;;;3.45;1.73;;;;;;;;;;5065367;28;20095;-84
2021/06/24 09:16:23;;;;;;;3.72;2.00;;;;;;;;;;5080479;28;20044;-83
2021/06/24 09:18:52;;;;;;;2.97;1.30;;;;;;;;;;5078490;28;20049;-83
2021/06/24 09:21:22;;;;;;;2.97;2.00;;;;;;;;;;5080960;28;20052;-84
2021/06/24 09:23:50;;;;;;;4.15;2.22;;;;;;;;;;5081326;28;20083;-81
2021/06/24 09:26:18;;;;;;;4.07;2.75;;;;;;;;;;5067210;28;20111;-82
2021/06/24 09:28:49;;;;;;;2.78;1.60;;;;;;;;;;5062720;28;20049;-84
2021/06/24 09:31:26;;;;;;;2.78;1.70;;;;;;;;;;5062436;28;20498;-83
2021/06/24 09:33:56;;;;;;;3.58;1.77;;;;;;;;;;5061936;28;20055;-83
2021/06/24 09:36:37;;;;;;;4.63;2.05;;;;;;;;;;5061796;28;20045;-83
2021/06/24 09:39:07;;;;;;;2.83;1.67;;;;;;;;;;5060495;28;20045;-84
2021/06/24 09:41:35;;;;;;;3.22;1.80;;;;;;;;;;5060399;28;20060;-82
2021/06/24 09:44:20;;;;;;;3.55;1.83;;;;;;;;;;5076626;28;20377;-83
2021/06/24 09:46:47;;;;;;;3.08;1.80;;;;;;;;;;5081691;28;20052;-82
2021/06/24 09:49:26;;;;;;;4.80;2.47;;;;;;;;;;5082248;28;20055;-82
2021/06/24 09:51:53;;;;;;;2.87;1.80;;;;;;;;;;5082100;28;20053;-84
2021/06/24 09:54:29;;;;;;;3.20;1.52;;;;;;;;;;5073770;28;20346;-84
2021/06/24 09:56:57;;;;;;;3.50;1.63;;;;;;;;;;5076950;28;20044;-84
2021/06/24 09:59:32;;;;;;;2.03;1.27;;;;;;;;;;5062462;28;20508;-82
2021/06/24 10:02:07;;;;;;;2.95;1.50;;;;;;;;;;5061494;28;20057;-83
2021/06/24 10:04:36;;;;;;;2.47;1.63;;;;;;;;;;5077162;28;20071;-84
2021/06/24 10:07:05;;;;;;;3.50;1.90;;;;;;;;;;5092744;28;20058;-82
2021/06/24 10:09:33;;;;;;;3.47;1.65;;;;;;;;;;5097622;28;20088;-83
2021/06/24 10:12:00;;;;;;;2.88;1.92;;;;;;;;;;5097552;28;20040;-81
2021/06/24 10:14:28;;;;;;;3.72;2.17;;;;;;;;;;5093535;28;20035;-80
2021/06/24 10:16:57;;;;;;;2.78;1.73;;;;;;;;;;5086001;28;20045;-81
2021/06/24 10:19:29;;;;;;;3.92;1.85;;;;;;;;;;5073234;28;20500;-81
2021/06/24 10:22:00;;;;;;;3.55;2.05;;;;;;;;;;5063348;28;20049;-80
2021/06/24 10:24:32;;;;;;;3.00;1.80;;;;;;;;;;5057292;28;20049;-80
2021/06/24 10:27:05;;;;;;;3.60;1.90;;;;;;;;;;5057745;28;20099;-80
2021/06/24 10:29:40;;;;;;;3.95;1.80;;;;;;;;;;5056268;28;20494;-81
2021/06/24 10:32:23;;;;;;;2.63;1.50;;;;;;;;;;5056555;28;20473;-81
2021/06/24 10:34:52;;;;;;;2.60;1.70;;;;;;;;;;5056587;28;20063;-80
2021/06/24 10:37:23;;;;;;;3.40;1.80;;;;;;;;;;5056635;28;20076;-81
2021/06/24 10:39:51;;;;;;;3.03;1.45;;;;;;;;;;5056480;28;20056;-81
2021/06/24 10:42:19;;;;;;;3.47;1.92;;;;;;;;;;5054310;28;20045;-81
2021/06/24 10:44:48;;;;;;;3.55;1.80;;;;;;;;;;5055550;28;20106;-81
2021/06/24 10:47:27;;;;;;;3.45;2.05;;;;;;;;;;5054201;28;20056;-79
2021/06/24 10:49:53;;;;;;;3.53;2.00;;;;;;;;;;5054565;28;20068;-81
2021/06/24 10:52:26;;;;;;;2.55;1.60;;;;;;;;;;5054325;28;20056;-79
2021/06/24 10:54:53;;;;;;;3.88;2.15;;;;;;;;;;5055058;28;20106;-79
2021/06/24 10:57:33;;;;;;;4.53;2.10;;;;;;;;;;5054993;28;20045;-80
2021/06/24 11:00:15;;;;;;;;;;;;;;;;;;5055742;28;20061;-79
2021/06/24 11:02:47;;;;;;;3.60;1.80;;;;;;;;;;5038278;28;19920;-79
2021/06/24 11:05:19;;;;;;;2.70;1.60;;;;;;;;;;5055874;28;20045;-80
2021/06/24 11:07:50;;;;;;;5.45;2.10;;;;;;;;;;5055720;28;20383;-80
2021/06/24 11:10:26;;;;;;;2.65;1.73;;;;;;;;;;5058667;28;20075;-80
2021/06/24 11:13:03;;;;;;;3.97;2.00;;;;;;;;;;5055437;28;20049;-80
2021/06/24 11:15:53;;;;;;;3.15;1.70;;;;;;;;;;5054913;28;20228;-79
2021/06/24 11:18:56;;;;;;;3.00;1.55;;;;;;;;;;5054899;28;20522;-79
2021/06/24 11:21:55;;;;;;;2.72;1.70;;;;;;;;;;5055113;28;20057;-79
2021/06/24 11:24:24;;;;;;;3.97;1.98;;;;;;;;;;5054323;28;20112;-80
2021/06/24 11:26:53;;;;;;;3.67;2.13;;;;;;;;;;5054638;28;20110;-79
2021/06/24 11:29:33;;;;;;;3.78;2.70;;;;;;;;;;5058052;28;20048;-80
2021/06/24 11:32:08;;;;;;;3.35;1.75;;;;;;;;;;5029478;28;20109;-79
2021/06/24 11:34:41;;;;;;;4.82;2.28;;;;;;;;;;5041919;28;20040;-79
2021/06/24 11:37:11;;;;;;;2.22;1.55;;;;;;;;;;5061238;28;20045;-79
2021/06/24 11:39:40;;;;;;;3.03;1.63;;;;;;;;;;5058162;28;20048;-78
2021/06/24 11:42:09;;;;;;;2.92;1.60;;;;;;;;;;5056047;28;20049;-80
2021/06/24 11:44:40;;;;;;;3.28;1.90;;;;;;;;;;5054445;28;20444;-79
2021/06/24 11:47:12;;;;;;;3.70;2.22;;;;;;;;;;5059394;28;20079;-79
2021/06/24 12:01:33;;;;;;;3.58;2.63;;;;;;;;;;5048572;28;20457;-80
2021/06/24 12:04:01;;;;;;;6.03;3.45;;;;;;;;;;5057964;28;20075;-80
2021/06/24 12:06:40;;;;;;;3.42;2.20;;;;;;;;;;5057922;28;20095;-79
2021/06/24 12:09:08;;;;;;;4.38;3.20;;;;;;;;;;5057333;28;20483;-79
2021/06/24 12:11:37;;;;;;;3.25;2.30;;;;;;;;;;5058148;28;20045;-79
2021/06/24 12:14:21;;;;;;;4.60;2.78;;;;;;;;;;5058214;28;20045;-79
2021/06/24 12:17:12;;;;;;;3.88;2.65;;;;;;;;;;5057995;28;20049;-80
2021/06/24 12:19:47;;;;;;;3.75;2.42;;;;;;;;;;5057805;28;20080;-80
2021/06/24 12:22:15;;;;;;;4.82;3.10;;;;;;;;;;5057846;28;20041;-79
2021/06/24 12:24:45;;;;;;;5.22;3.42;;;;;;;;;;5058307;28;20135;-80
2021/06/24 12:27:24;;;;;;;4.78;3.00;;;;;;;;;;5059876;28;20048;-79
2021/06/24 12:29:53;;;;;;;4.55;3.10;;;;;;;;;;5074442;28;20062;-80
2021/06/24 12:32:21;;;;;;;5.18;3.30;;;;;;;;;;5068836;28;20437;-80
2021/06/24 12:34:49;;;;;;;5.18;2.95;;;;;;;;;;5058215;28;20067;-80
2021/06/24 12:37:39;;;;;;;4.25;3.00;;;;;;;;;;5059991;28;20409;-80
2021/06/24 12:40:12;;;;;;;3.83;2.65;;;;;;;;;;5072717;28;20493;-79
2021/06/24 12:42:46;;;;;;;4.88;3.10;;;;;;;;;;5078127;28;20048;-79
2021/06/24 12:45:16;;;;;;;5.22;3.28;;;;;;;;;;5078324;28;20323;-79
2021/06/24 12:47:45;;;;;;;6.75;5.40;;;;;;;;;;5073740;28;20040;-79
2021/06/24 12:50:17;;;;;;;6.28;4.57;;;;;;;;;;5076172;28;20064;-78
2021/06/24 12:52:52;;;;;;;4.95;2.90;;;;;;;;;;5076038;28;20048;-79
2021/06/24 12:55:43;;;;;;;3.80;2.88;;;;;;;;;;5077433;28;20056;-79
2021/06/24 12:58:13;;;;;;;4.70;3.47;;;;;;;;;;5075447;28;20044;-79
2021/06/24 13:00:42;;;;;;;5.72;4.20;;;;;;;;;;5065123;28;20041;-80
2021/06/24 13:03:09;;;;;;;5.10;3.67;;;;;;;;;;5083928;22;20037;-82
2021/06/24 13:05:38;;;;;;;4.35;2.88;;;;;;;;;;5082535;28;20037;-82
2021/06/24 13:08:08;;;;;;;3.13;2.40;;;;;;;;;;5070108;28;20045;-82
2021/06/24 13:10:57;;;;;;;3.78;2.72;;;;;;;;;;5062098;28;20044;-82
2021/06/24 13:13:32;;;;;;;3.35;2.47;;;;;;;;;;5073253;28;20048;-82
2021/06/24 13:16:00;;;;;;;3.17;2.40;;;;;;;;;;5077348;28;20086;-82
2021/06/24 13:18:29;;;;;;;3.30;2.20;;;;;;;;;;5062567;28;20053;-82
2021/06/24 13:21:01;;;;;;;4.80;2.57;;;;;;;;;;5057446;28;20201;-83
2021/06/24 13:23:35;;;;;;;4.03;3.00;;;;;;;;;;5056060;28;20049;-83
2021/06/24 13:26:14;;;;;;;3.00;1.98;;;;;;;;;;5057676;28;20063;-83
2021/06/24 13:28:42;;;;;;;3.13;2.27;;;;;;;;;;5056485;28;20191;-82
2021/06/24 13:31:09;;;;;;;3.83;2.40;;;;;;;;;;5055790;28;20331;-84
2021/06/24 13:33:37;;;;;;;3.38;2.17;;;;;;;;;;5057913;28;20529;-83
2021/06/24 13:36:21;;;;;;;2.67;1.60;;;;;;;;;;5057532;28;20049;-82
2021/06/24 13:39:00;;;;;;;2.88;1.70;;;;;;;;;;5057053;28;20075;-80
2021/06/24 13:41:32;;;;;;;2.78;2.00;;;;;;;;;;5076529;28;20055;-82
2021/06/24 13:44:25;;;;;;;3.13;1.90;;;;;;;;;;5069855;28;20087;-83
2021/06/24 13:46:55;;;;;;;3.20;1.95;;;;;;;;;;5058516;28;20119;-81
2021/06/24 13:49:22;;;;;;;;;;;;;;;;;;5057220;28;20049;-82
2021/06/24 13:51:52;;;;;;;2.70;2.03;;;;;;;;;;5057085;28;20535;-81
2021/06/24 13:54:20;;;;;;;3.10;1.70;;;;;;;;;;5055011;28;20047;-80
2021/06/24 13:56:54;;;;;;;2.67;1.67;;;;;;;;;;5059452;28;20135;-80
2021/06/24 13:59:25;;;;;;;2.97;1.88;;;;;;;;;;5059196;28;20504;-82
2021/06/24 14:01:53;;;;;;;3.80;2.10;;;;;;;;;;5077671;28;20051;-79
2021/06/24 14:04:20;;;;;;;2.80;1.90;;;;;;;;;;5079603;28;20106;-82
2021/06/24 14:06:48;;;;;;;2.75;2.00;;;;;;;;;;5080311;28;20108;-81
2021/06/24 14:09:17;;;;;;;3.30;1.88;;;;;;;;;;5077414;28;20139;-84
2021/06/24 14:12:11;;;;;;;2.65;1.77;;;;;;;;;;5079102;28;20124;-82
2021/06/24 14:14:38;;;;;;;3.42;2.10;;;;;;;;;;5082229;28;20516;-82
2021/06/24 14:17:05;;;;;;;3.17;2.03;;;;;;;;;;5080395;28;20045;-80
2021/06/24 14:19:36;;;;;;;2.80;2.10;;;;;;;;;;5085276;28;20112;-80
2021/06/24 14:22:05;;;;;;;2.50;1.90;;;;;;;;;;5080200;28;20547;-79
2021/06/24 14:24:39;;;;;;;11.65;10.50;;;;;;;;;;5070460;28;20041;-83
2021/06/24 14:27:07;;;;;;;5.05;2.88;;;;;;;;;;5060821;28;20056;-82
2021/06/24 14:29:36;;;;;;;2.92;1.95;;;;;;;;;;5058255;28;20047;-82
2021/06/24 14:32:04;;;;;;;3.22;2.10;;;;;;;;;;5057572;28;20664;-82
2021/06/24 14:34:32;;;;;;;4.55;2.03;;;;;;;;;;5056603;28;20052;-83
2021/06/24 14:37:01;;;;;;;3.70;2.10;;;;;;;;;;5061190;28;20152;-83
2021/06/24 14:39:32;;;;;;;3.40;2.00;;;;;;;;;;5059083;28;20041;-83
2021/06/24 14:41:59;;;;;;;3.50;2.10;;;;;;;;;;5058821;28;20072;-84
2021/06/24 14:44:26;;;;;;;5.20;2.78;;;;;;;;;;5055862;28;20088;-82
2021/06/24 14:46:56;;;;;;;3.88;2.03;;;;;;;;;;5057100;28;20199;-83
2021/06/24 14:49:23;;;;;;;;;;;;;;;;;;5059970;28;20029;-85
2021/06/24 14:51:51;;;;;;;3.55;2.47;;;;;;;;;;5061660;28;19948;-83
2021/06/24 14:54:22;;;;;;;6.22;5.28;;;;;;;;;;5058523;28;20037;-85
2021/06/24 14:56:55;;;;;;;3.88;2.35;;;;;;;;;;5060434;28;20122;-82
2021/06/24 14:59:27;;;;;;;3.40;1.90;;;;;;;;;;5059053;28;20210;-82
2021/06/24 15:01:57;;;;;;;3.10;2.00;;;;;;;;;;5062887;28;20068;-84
2021/06/24 15:04:25;;;;;;;3.08;2.25;;;;;;;;;;5059467;28;20079;-82
2021/06/24 15:06:52;;;;;;;3.20;2.10;;;;;;;;;;5056654;28;20045;-83
2021/06/24 15:09:25;;;;;;;3.30;2.42;;;;;;;;;;5058712;28;20125;-83
2021/06/24 15:11:57;;;;;;;4.03;2.78;;;;;;;;;;5060271;28;20064;-83